Time;durP1;ratioP1;P1;durP2;ratioP2;P2;SDS_P1;SDS_P2;PMS_P1;PMS_P2;Temp;Humidity;BMP_temperature;BMP_pressure;BME280_temperature;BME280_humidity;BME280_pressure;Samples;Min_cycle;Max_cycle;Signal;HPM_P1;HPM_P2
2023/10/28 00:01:19;;;;;;;20.95;9.82;;;;;;;9.91;100.00;98960.03;5042925;28;20049;-82
2023/10/28 00:03:46;;;;;;;18.17;9.68;;;;;;;10.08;100.00;98963.94;5059745;28;20045;-82
2023/10/28 00:06:13;;;;;;;18.60;9.93;;;;;;;10.09;100.00;98962.94;5059834;28;20045;-81
2023/10/28 00:08:40;;;;;;;20.38;10.00;;;;;;;10.04;100.00;98959.28;5052278;28;20063;-82
2023/10/28 00:11:10;;;;;;;17.40;9.35;;;;;;;10.15;100.00;98962.16;5046160;28;20060;-82
2023/10/28 00:13:39;;;;;;;18.70;9.40;;;;;;;10.14;100.00;98976.25;5040582;28;20045;-82
2023/10/28 00:16:06;;;;;;;17.00;9.88;;;;;;;10.17;100.00;98969.81;5056663;28;20102;-80
2023/10/28 00:18:33;;;;;;;13.50;8.88;;;;;;;10.27;100.00;98970.31;5038928;28;20045;-82
2023/10/28 00:21:00;;;;;;;19.30;9.32;;;;;;;10.22;100.00;98975.31;5055388;28;20049;-81
2023/10/28 00:23:26;;;;;;;20.20;10.23;;;;;;;10.16;100.00;98969.00;5058820;28;20140;-81
2023/10/28 00:26:01;;;;;;;17.45;9.77;;;;;;;10.20;100.00;98975.50;5058465;28;20063;-81
2023/10/28 00:28:27;;;;;;;17.80;9.00;;;;;;;10.18;100.00;98976.66;5061262;28;20053;-81
2023/10/28 00:30:55;;;;;;;17.17;9.70;;;;;;;10.02;100.00;98958.66;5060585;28;20076;-81
2023/10/28 00:33:23;;;;;;;18.25;9.15;;;;;;;10.01;100.00;98965.72;5050343;28;20077;-78
2023/10/28 00:35:52;;;;;;;18.17;9.25;;;;;;;10.03;100.00;98968.94;5042755;28;20056;-80
2023/10/28 00:38:18;;;;;;;18.58;9.48;;;;;;;10.02;100.00;98975.16;5037299;28;20140;-80
2023/10/28 00:40:48;;;;;;;18.05;9.75;;;;;;;9.97;100.00;98970.50;5042158;28;20076;-82
2023/10/28 00:43:14;;;;;;;17.95;9.27;;;;;;;9.96;100.00;98970.69;5046290;28;20127;-82
2023/10/28 00:45:42;;;;;;;14.80;9.88;;;;;;;9.94;100.00;98967.47;5046176;28;20080;-81
2023/10/28 00:48:10;;;;;;;24.30;10.32;;;;;;;9.94;100.00;98972.69;5058881;28;20144;-81
2023/10/28 00:50:36;;;;;;;17.85;9.85;;;;;;;10.09;100.00;98969.97;5053592;28;20515;-81
2023/10/28 00:53:03;;;;;;;18.58;9.63;;;;;;;10.11;100.00;98974.00;5037872;28;20470;-81
2023/10/28 00:55:30;;;;;;;14.80;9.82;;;;;;;10.12;100.00;98973.00;5049819;28;20095;-81
2023/10/28 00:57:57;;;;;;;18.67;8.68;;;;;;;10.24;100.00;98968.88;5059017;28;20053;-81
2023/10/28 01:00:24;;;;;;;21.70;9.20;;;;;;;10.15;100.00;98966.59;5055288;28;20073;-80
2023/10/28 01:02:52;;;;;;;16.75;9.27;;;;;;;10.24;100.00;98973.31;5040366;28;20132;-80
2023/10/28 01:05:21;;;;;;;14.70;9.40;;;;;;;10.26;100.00;98972.13;5038339;28;20631;-82
2023/10/28 01:07:49;;;;;;;16.45;7.80;;;;;;;10.25;100.00;98975.72;5038754;28;20111;-81
2023/10/28 01:10:25;;;;;;;18.35;7.80;;;;;;;10.30;100.00;98978.56;5037526;28;20132;-80
2023/10/28 01:12:53;;;;;;;15.50;7.40;;;;;;;10.28;100.00;98972.72;5038461;28;20109;-82
2023/10/28 01:15:20;;;;;;;17.55;7.03;;;;;;;10.29;100.00;98968.31;5046240;28;20075;-80
2023/10/28 01:17:48;;;;;;;13.63;6.70;;;;;;;10.34;100.00;98975.56;5057627;28;20087;-81
2023/10/28 01:20:15;;;;;;;12.07;5.70;;;;;;;10.34;100.00;98973.75;5040283;28;20527;-82
2023/10/28 01:22:43;;;;;;;13.02;6.25;;;;;;;10.42;100.00;98984.03;5051400;28;20053;-80
2023/10/28 01:25:10;;;;;;;8.57;5.97;;;;;;;10.40;100.00;98982.63;5056959;28;20095;-81
2023/10/28 01:27:38;;;;;;;14.63;6.10;;;;;;;10.40;100.00;98985.25;5053521;28;20079;-81
2023/10/28 01:30:05;;;;;;;9.20;5.93;;;;;;;10.40;100.00;98986.03;5049946;28;20079;-83
2023/10/28 01:32:32;;;;;;;11.55;5.78;;;;;;;10.43;100.00;98980.41;5049940;28;20081;-82
2023/10/28 01:34:59;;;;;;;13.38;6.03;;;;;;;10.45;100.00;98993.28;5056713;28;20049;-79
2023/10/28 01:37:26;;;;;;;9.18;5.50;;;;;;;10.46;100.00;98997.53;5045165;28;20057;-80
2023/10/28 01:39:56;;;;;;;10.82;5.35;;;;;;;10.47;100.00;98997.31;5037088;28;20053;-80
2023/10/28 01:42:23;;;;;;;9.02;5.45;;;;;;;10.46;100.00;98989.69;5038576;28;20124;-80
2023/10/28 01:44:50;;;;;;;13.43;5.03;;;;;;;10.48;100.00;98998.13;5037311;28;20041;-80
2023/10/28 01:47:17;;;;;;;9.00;4.75;;;;;;;10.48;100.00;99001.56;5044258;28;20559;-82
2023/10/28 01:49:44;;;;;;;8.27;4.70;;;;;;;10.52;100.00;99000.16;5042149;28;20171;-82
2023/10/28 01:52:12;;;;;;;8.52;4.03;;;;;;;10.57;100.00;99007.44;5047822;28;20400;-82
2023/10/28 01:54:39;;;;;;;10.35;3.97;;;;;;;10.63;100.00;99002.22;5050500;28;20442;-82
2023/10/28 01:57:09;;;;;;;7.63;4.00;;;;;;;10.65;100.00;99009.88;5056997;28;20108;-82
2023/10/28 01:59:36;;;;;;;8.73;3.75;;;;;;;10.64;100.00;99009.06;5057682;28;20052;-82
2023/10/28 02:02:03;;;;;;;8.90;4.00;;;;;;;10.67;100.00;99002.66;5057850;28;20072;-81
2023/10/28 02:04:30;;;;;;;9.52;4.18;;;;;;;10.70;100.00;99011.91;5057990;28;20088;-80
2023/10/28 02:06:58;;;;;;;8.13;4.00;;;;;;;10.70;100.00;99004.06;5049287;28;20102;-80
2023/10/28 02:09:25;;;;;;;11.07;4.10;;;;;;;10.75;100.00;99010.31;5056588;28;20052;-80
2023/10/28 02:11:53;;;;;;;6.97;3.88;;;;;;;10.76;100.00;99004.09;5056171;28;20045;-81
2023/10/28 02:14:23;;;;;;;10.10;4.60;;;;;;;10.72;100.00;98999.44;5038210;28;20057;-81
2023/10/28 02:16:50;;;;;;;7.22;3.50;;;;;;;10.70;100.00;99001.44;5051816;28;20044;-81
2023/10/28 02:19:17;;;;;;;5.38;3.33;;;;;;;10.71;100.00;99005.69;5038710;28;20060;-82
2023/10/28 02:21:44;;;;;;;8.50;3.67;;;;;;;10.72;100.00;99004.69;5050830;28;20427;-81
2023/10/28 02:24:12;;;;;;;8.32;3.42;;;;;;;10.72;100.00;99000.25;5057074;28;20140;-82
2023/10/28 02:26:39;;;;;;;8.77;3.63;;;;;;;10.70;100.00;99010.09;5048895;28;20554;-82
2023/10/28 02:29:06;;;;;;;4.65;3.28;;;;;;;10.70;100.00;99006.69;5050095;28;20601;-82
2023/10/28 02:31:35;;;;;;;5.32;3.30;;;;;;;10.68;100.00;98999.03;5058896;28;20499;-81
2023/10/28 02:34:01;;;;;;;9.00;3.97;;;;;;;10.63;100.00;99010.06;5062670;28;20092;-80
2023/10/28 02:36:28;;;;;;;5.97;2.75;;;;;;;10.59;100.00;99001.00;5063159;28;20064;-82
2023/10/28 02:38:57;;;;;;;3.88;2.97;;;;;;;10.63;100.00;98999.63;5060681;28;20131;-81
2023/10/28 02:41:23;;;;;;;5.50;3.22;;;;;;;10.61;100.00;99003.44;5061042;28;20103;-83
2023/10/28 02:43:50;;;;;;;4.82;2.72;;;;;;;10.68;100.00;99006.06;5060169;28;20368;-82
2023/10/28 02:46:21;;;;;;;5.30;3.58;;;;;;;10.68;100.00;99009.50;5062123;28;20546;-82
2023/10/28 02:48:51;;;;;;;9.95;3.30;;;;;;;10.66;100.00;99013.31;5062078;28;20172;-83
2023/10/28 02:51:18;;;;;;;4.55;2.58;;;;;;;10.64;100.00;99005.66;5061294;28;20110;-82
2023/10/28 02:53:44;;;;;;;5.30;2.50;;;;;;;10.67;100.00;99005.25;5061967;28;20057;-81
2023/10/28 02:56:11;;;;;;;5.93;3.15;;;;;;;10.59;100.00;99005.44;5060860;28;20132;-81
2023/10/28 02:58:39;;;;;;;5.20;2.85;;;;;;;10.58;100.00;99011.66;5060125;28;20084;-81
2023/10/28 03:01:09;;;;;;;6.40;3.13;;;;;;;10.52;100.00;98996.75;5052559;28;20080;-81
2023/10/28 03:03:36;;;;;;;5.38;2.70;;;;;;;10.44;100.00;98997.72;5053710;28;20486;-81
2023/10/28 03:06:04;;;;;;;6.07;3.00;;;;;;;10.41;100.00;99002.53;5061100;28;20095;-81
2023/10/28 03:08:31;;;;;;;5.38;2.72;;;;;;;10.38;100.00;98992.47;5060986;28;20519;-82
2023/10/28 03:10:58;;;;;;;4.65;2.65;;;;;;;10.26;100.00;98995.66;5061369;28;20057;-82
2023/10/28 03:13:24;;;;;;;4.85;2.80;;;;;;;10.31;100.00;98997.69;5049449;28;20132;-81
2023/10/28 03:15:51;;;;;;;3.63;2.55;;;;;;;10.32;100.00;98998.47;5045077;28;20064;-80
2023/10/28 03:18:18;;;;;;;6.10;3.10;;;;;;;10.37;100.00;99001.31;5048841;28;20136;-81
2023/10/28 03:20:45;;;;;;;7.00;2.97;;;;;;;10.34;100.00;98994.69;5040641;28;20096;-79
2023/10/28 03:23:13;;;;;;;6.55;3.47;;;;;;;10.35;100.00;99008.56;5040969;28;20080;-81
2023/10/28 03:25:40;;;;;;;6.53;2.90;;;;;;;10.35;100.00;99005.94;5053406;28;20081;-80
2023/10/28 03:28:06;;;;;;;3.95;2.67;;;;;;;10.34;100.00;99006.94;5044099;28;20124;-81
2023/10/28 03:30:33;;;;;;;4.78;2.83;;;;;;;10.29;100.00;99000.47;5047899;28;20080;-81
2023/10/28 03:33:00;;;;;;;3.42;2.60;;;;;;;10.22;100.00;98999.63;5045608;28;20111;-81
2023/10/28 03:35:28;;;;;;;4.65;2.42;;;;;;;10.18;100.00;99005.41;5054179;28;20217;-81
2023/10/28 03:37:56;;;;;;;4.38;2.65;;;;;;;10.19;100.00;99007.03;5047703;28;20081;-81
2023/10/28 03:40:24;;;;;;;7.25;2.60;;;;;;;10.19;100.00;99007.88;5059801;28;20076;-80
2023/10/28 03:42:50;;;;;;;5.20;2.58;;;;;;;10.21;100.00;99003.25;5059794;28;20071;-81
2023/10/28 03:45:17;;;;;;;2.85;2.33;;;;;;;10.18;100.00;99015.88;5059324;28;20048;-80
2023/10/28 03:47:44;;;;;;;3.55;2.60;;;;;;;10.13;100.00;99011.22;5059794;28;20056;-81
2023/10/28 03:50:10;;;;;;;4.65;2.80;;;;;;;10.06;100.00;99012.97;5058064;28;20044;-80
2023/10/28 03:52:37;;;;;;;6.53;2.78;;;;;;;9.88;100.00;99003.03;5049084;28;20416;-80
2023/10/28 03:55:04;;;;;;;4.88;2.80;;;;;;;9.81;100.00;98999.56;5039296;28;20103;-82
2023/10/28 03:57:32;;;;;;;8.25;2.83;;;;;;;9.77;100.00;99015.81;5040364;28;20132;-80
2023/10/28 03:59:59;;;;;;;6.13;3.05;;;;;;;9.68;100.00;99011.72;5039533;28;20133;-80
2023/10/28 04:02:25;;;;;;;5.40;3.35;;;;;;;9.66;100.00;99006.69;5039806;28;20100;-79
2023/10/28 04:04:52;;;;;;;6.32;3.20;;;;;;;9.62;100.00;99008.88;5042018;28;20045;-82
2023/10/28 04:07:19;;;;;;;5.70;3.60;;;;;;;9.61;100.00;99012.47;5044082;28;20048;-81
2023/10/28 04:09:45;;;;;;;5.85;3.05;;;;;;;9.64;100.00;99016.50;5047502;28;20049;-81
2023/10/28 04:12:12;;;;;;;8.60;3.70;;;;;;;9.63;100.00;99010.47;5039726;28;20050;-82
2023/10/28 04:14:40;;;;;;;5.53;3.45;;;;;;;9.65;100.00;99005.88;5040326;28;20128;-79
2023/10/28 04:17:07;;;;;;;4.97;3.40;;;;;;;9.63;100.00;99013.09;5039814;28;20232;-81
2023/10/28 04:19:33;;;;;;;9.60;5.65;;;;;;;9.61;100.00;99002.03;5038092;28;20046;-79
2023/10/28 04:22:00;;;;;;;5.45;3.53;;;;;;;9.56;100.00;99014.84;5054439;28;20076;-80
2023/10/28 04:24:26;;;;;;;6.75;3.60;;;;;;;9.53;100.00;99014.41;5059334;28;20412;-82
2023/10/28 04:26:54;;;;;;;6.63;4.15;;;;;;;9.49;100.00;99013.97;5047120;28;20065;-81
2023/10/28 04:29:21;;;;;;;6.40;3.65;;;;;;;9.48;100.00;99014.16;5040285;28;20062;-81
2023/10/28 04:31:49;;;;;;;6.10;3.92;;;;;;;9.48;100.00;99014.97;5059114;28;20103;-81
2023/10/28 04:34:17;;;;;;;6.50;3.80;;;;;;;9.50;100.00;99020.00;5059191;28;20528;-82
2023/10/28 04:36:44;;;;;;;5.90;3.70;;;;;;;9.51;100.00;99017.19;5058578;28;20045;-82
2023/10/28 04:39:10;;;;;;;6.13;3.35;;;;;;;9.46;100.00;99001.28;5058983;28;20053;-82
2023/10/28 04:41:37;;;;;;;7.05;3.72;;;;;;;9.44;100.00;99008.53;5059316;28;20124;-82
2023/10/28 04:44:04;;;;;;;7.82;3.40;;;;;;;9.52;100.00;99010.19;5046290;28;20137;-81
2023/10/28 04:46:31;;;;;;;4.90;3.28;;;;;;;9.53;100.00;99015.22;5038541;28;20057;-81
2023/10/28 04:48:59;;;;;;;5.70;3.35;;;;;;;9.58;100.00;99007.63;5038787;28;20136;-81
2023/10/28 04:51:25;;;;;;;6.22;3.42;;;;;;;9.67;100.00;99010.91;5057680;28;20048;-82
2023/10/28 04:53:52;;;;;;;6.80;3.30;;;;;;;9.62;100.00;99001.03;5058064;28;20136;-81
2023/10/28 04:56:19;;;;;;;3.97;3.00;;;;;;;9.66;100.00;99004.06;5058303;28;20110;-81
2023/10/28 04:58:45;;;;;;;6.28;3.03;;;;;;;9.72;100.00;99005.13;5057831;28;20110;-82
2023/10/28 05:01:12;;;;;;;4.50;2.88;;;;;;;9.67;100.00;98994.44;5047908;28;20109;-81
2023/10/28 05:03:39;;;;;;;4.57;3.00;;;;;;;9.70;100.00;98994.84;5038652;28;20045;-81
2023/10/28 05:06:09;;;;;;;4.93;3.17;;;;;;;9.70;100.00;98994.06;5038261;28;20124;-81
2023/10/28 05:09:06;;;;;;;6.55;3.22;;;;;;;9.70;100.00;98994.06;5051666;28;20049;-82
2023/10/28 05:12:01;;;;;;;4.63;3.35;;;;;;;9.69;100.00;98993.25;5050829;28;20099;-83
2023/10/28 05:15:06;;;;;;;5.13;3.63;;;;;;;9.63;100.00;98989.59;5052998;28;20053;-83
2023/10/28 05:21:13;;;;;;;;;;;;;;;;;;;;;
2023/10/28 05:36:20;;;;;;;4.38;3.70;;;;;;;9.59;100.00;98982.31;4946766;28;20798;-82
2023/10/28 05:39:07;;;;;;;16.83;4.60;;;;;;;9.67;100.00;99002.25;5010149;28;20046;-83
2023/10/28 06:51:23;;;;;;;9.73;6.38;;;;;;;9.65;100.00;99025.97;4956113;28;20050;-82
2023/10/28 07:10:10;;;;;;;7.18;4.90;;;;;;;10.14;100.00;99017.25;4832223;29;20065;-81
2023/10/28 07:13:08;;;;;;;;;;;;;;;;;;;;;
2023/10/28 07:59:38;;;;;;;9.55;5.82;;;;;;;10.72;100.00;99089.19;5119002;23;20068;-81
2023/10/28 08:02:26;;;;;;;7.53;5.60;;;;;;;10.70;100.00;99098.25;5067514;28;20378;-80
2023/10/28 08:05:00;;;;;;;7.55;5.43;;;;;;;10.78;100.00;99088.44;5071789;28;20061;-82
2023/10/28 08:07:40;;;;;;;8.07;5.15;;;;;;;10.67;100.00;99081.13;5077638;28;20087;-82
2023/10/28 08:10:33;;;;;;;7.82;4.63;;;;;;;10.70;100.00;99072.09;5095915;28;20083;-82
2023/10/28 08:13:19;;;;;;;10.10;4.93;;;;;;;10.75;100.00;99088.00;5075661;28;20048;-83
2023/10/28 08:16:23;;;;;;;6.88;4.25;;;;;;;10.81;100.00;99092.47;5075638;28;20510;-82
2023/10/28 08:19:24;;;;;;;6.38;3.90;;;;;;;10.55;100.00;99072.19;5015888;28;20049;-82
2023/10/28 08:22:15;;;;;;;8.68;7.53;;;;;;;10.89;100.00;99095.69;5075043;28;20515;-82
2023/10/28 08:25:15;;;;;;;9.50;4.28;;;;;;;10.83;100.00;99090.47;5070182;28;20120;-82
2023/10/28 08:28:03;;;;;;;7.20;4.03;;;;;;;10.88;100.00;99090.66;5070406;28;20045;-82
2023/10/28 08:30:49;;;;;;;7.20;3.88;;;;;;;10.77;100.00;99089.44;5083511;28;20078;-82
2023/10/28 08:33:43;;;;;;;8.93;4.43;;;;;;;10.78;100.00;99085.81;5068321;28;20048;-82
2023/10/28 08:36:29;;;;;;;8.75;4.15;;;;;;;10.96;100.00;99104.38;5080357;28;20053;-82
2023/10/28 08:43:25;;;;;;;8.20;4.40;;;;;;;10.98;100.00;99091.09;4979346;28;20047;-80
2023/10/28 08:49:35;;;;;;;16.02;6.93;;;;;;;11.09;100.00;99100.22;5028473;28;20397;-81
2023/10/28 08:58:15;;;;;;;13.45;6.55;;;;;;;11.50;100.00;99128.91;5073534;28;20099;-81
2023/10/28 09:00:46;;;;;;;15.32;6.25;;;;;;;11.40;100.00;99124.06;5059877;28;20045;-82
2023/10/28 09:03:15;;;;;;;11.05;5.53;;;;;;;11.46;100.00;99125.88;5058915;28;20061;-82
2023/10/28 09:05:44;;;;;;;13.45;6.13;;;;;;;11.35;100.00;99105.50;5079489;28;20044;-82
2023/10/28 09:08:24;;;;;;;11.98;5.13;;;;;;;11.66;100.00;99138.22;5061686;28;20073;-81
2023/10/28 09:11:07;;;;;;;13.45;5.28;;;;;;;11.68;100.00;99115.25;5078077;28;20049;-82
2023/10/28 09:14:04;;;;;;;11.48;4.68;;;;;;;11.89;100.00;99125.56;5077352;28;20054;-81
2023/10/28 09:16:38;;;;;;;11.75;4.00;;;;;;;12.12;100.00;99130.41;5076857;28;20056;-81
2023/10/28 09:19:28;;;;;;;7.80;4.35;;;;;;;12.14;100.00;99110.84;5060669;28;20048;-81
2023/10/28 09:22:04;;;;;;;5.72;3.90;;;;;;;12.25;100.00;99133.03;5071277;28;20060;-79
2023/10/28 09:24:42;;;;;;;8.40;4.35;;;;;;;12.33;100.00;99124.13;5068459;28;20147;-81
2023/10/28 09:27:19;;;;;;;8.00;4.25;;;;;;;12.43;100.00;99129.78;5077318;28;20134;-81
2023/10/28 09:29:55;;;;;;;5.85;4.32;;;;;;;12.32;100.00;99128.56;5076316;28;20063;-81
2023/10/28 09:32:28;;;;;;;7.82;4.00;;;;;;;12.28;100.00;99122.97;5072528;28;20045;-81
2023/10/28 09:34:55;;;;;;;5.80;3.95;;;;;;;12.37;100.00;99120.09;5072189;28;20124;-81
2023/10/28 09:37:24;;;;;;;7.25;4.20;;;;;;;12.44;100.00;99136.63;5059356;28;20049;-81
2023/10/28 09:40:04;;;;;;;6.72;4.50;;;;;;;12.35;100.00;99137.84;5056240;28;20122;-81
2023/10/28 09:42:34;;;;;;;5.82;4.07;;;;;;;12.63;100.00;99146.31;5056336;28;20053;-81
2023/10/28 09:45:10;;;;;;;6.13;4.07;;;;;;;12.69;100.00;99144.69;5057715;28;20053;-80
2023/10/28 09:48:00;;;;;;;7.47;4.25;;;;;;;12.36;100.00;99121.09;5069110;28;20063;-80
2023/10/28 09:50:48;;;;;;;7.68;4.25;;;;;;;12.38;100.00;99147.94;5069144;28;20052;-81
2023/10/28 09:53:18;;;;;;;6.90;4.38;;;;;;;12.27;100.00;99131.84;5062012;28;20053;-81
2023/10/28 09:55:59;;;;;;;8.98;4.32;;;;;;;12.55;100.00;99149.13;5071264;28;20052;-81
2023/10/28 09:58:45;;;;;;;5.82;4.10;;;;;;;12.59;100.00;99160.84;5077067;28;20040;-80
2023/10/28 10:01:23;;;;;;;6.53;4.15;;;;;;;12.50;100.00;99147.13;5076432;28;20070;-80
2023/10/28 10:04:06;;;;;;;8.68;4.40;;;;;;;12.55;100.00;99151.75;5068384;28;20040;-80
2023/10/28 10:06:50;;;;;;;7.82;4.45;;;;;;;12.84;100.00;99145.22;5068954;28;20048;-80
2023/10/28 10:09:25;;;;;;;8.63;4.63;;;;;;;13.10;100.00;99141.72;5076972;28;20414;-80
2023/10/28 10:11:57;;;;;;;7.95;4.25;;;;;;;13.59;100.00;99155.03;5061372;28;20049;-80
2023/10/28 10:14:30;;;;;;;7.63;4.30;;;;;;;13.47;100.00;99146.19;5065902;28;20060;-80
2023/10/28 10:17:03;;;;;;;8.50;4.30;;;;;;;13.79;100.00;99125.16;5064373;28;20382;-81
2023/10/28 10:19:36;;;;;;;5.40;3.92;;;;;;;14.49;100.00;99139.78;5073894;28;20044;-80
2023/10/28 10:22:10;;;;;;;5.05;3.28;;;;;;;14.39;100.00;99112.31;5061065;28;20128;-81
2023/10/28 10:24:40;;;;;;;6.28;2.90;;;;;;;14.82;100.00;99107.84;5071756;28;20126;-81
2023/10/28 10:27:13;;;;;;;3.20;2.20;;;;;;;15.00;100.00;99095.69;5069167;28;20068;-80
2023/10/28 10:29:46;;;;;;;2.92;2.10;;;;;;;15.09;100.00;99092.53;5069896;28;20045;-81
2023/10/28 10:32:23;;;;;;;4.75;1.92;;;;;;;14.84;99.21;99076.03;5070182;28;20051;-80
2023/10/28 10:34:55;;;;;;;4.03;2.08;;;;;;;15.06;98.67;99092.16;5076164;28;20140;-80
2023/10/28 10:37:28;;;;;;;3.37;2.00;;;;;;;14.94;98.23;99092.09;5076866;28;20387;-80
2023/10/28 10:39:58;;;;;;;6.32;2.30;;;;;;;14.96;96.92;99078.72;5077056;28;20487;-79
2023/10/28 10:42:31;;;;;;;4.82;2.53;;;;;;;14.84;96.89;99076.81;5069962;28;20506;-80
2023/10/28 10:45:01;;;;;;;;;;;;;;;14.97;95.94;99075.88;5063375;28;20052;-80
2023/10/28 10:47:39;;;;;;;4.40;2.17;;;;;;;14.77;94.26;99070.03;5066305;28;19920;-80
2023/10/28 10:50:08;;;;;;;7.25;2.92;;;;;;;14.64;94.40;99059.66;5055935;28;20088;-80
2023/10/28 10:52:37;;;;;;;7.75;3.42;;;;;;;14.53;94.09;99053.31;5071687;28;20053;-82
2023/10/28 10:55:08;;;;;;;8.75;2.90;;;;;;;14.76;92.70;99058.69;5058538;28;20106;-81
2023/10/28 10:57:44;;;;;;;8.20;3.13;;;;;;;14.77;92.12;99051.59;5068355;28;20052;-81
2023/10/28 11:00:16;;;;;;;11.23;4.22;;;;;;;15.01;91.34;99060.41;5072963;28;20078;-81
2023/10/28 11:02:46;;;;;;;7.18;3.22;;;;;;;15.07;88.64;99039.25;5077382;28;20056;-81
2023/10/28 11:05:13;;;;;;;10.85;3.53;;;;;;;15.13;87.51;99045.44;5071754;28;20136;-81
2023/10/28 11:07:42;;;;;;;8.38;3.35;;;;;;;15.42;86.53;99049.09;5077106;28;20052;-81
2023/10/28 11:10:10;;;;;;;13.02;4.97;;;;;;;15.19;86.42;99048.00;5079828;28;20479;-80
2023/10/28 11:12:38;;;;;;;8.65;2.97;;;;;;;15.19;86.21;99044.56;5079667;28;20060;-80
2023/10/28 11:15:06;;;;;;;13.80;3.67;;;;;;;15.10;86.61;99054.63;5063051;28;20483;-81
2023/10/28 11:17:33;;;;;;;8.95;2.85;;;;;;;15.00;86.23;99043.00;5068836;28;20049;-81
2023/10/28 11:20:00;;;;;;;10.10;4.60;;;;;;;15.21;86.50;99042.50;5059930;28;20077;-80
2023/10/28 11:22:27;;;;;;;8.82;4.47;;;;;;;15.00;86.07;99038.53;5059664;28;20111;-81
2023/10/28 11:24:56;;;;;;;8.65;3.28;;;;;;;15.14;86.54;99045.22;5074000;28;20107;-81
2023/10/28 11:27:27;;;;;;;8.50;3.60;;;;;;;15.18;86.36;99048.22;5079184;28;20502;-81
2023/10/28 11:29:56;;;;;;;8.77;3.25;;;;;;;15.54;85.29;99039.38;5079381;28;20045;-81
2023/10/28 11:32:23;;;;;;;10.45;3.25;;;;;;;15.59;85.50;99039.53;5079578;28;20049;-81
2023/10/28 11:34:53;;;;;;;9.98;3.50;;;;;;;15.40;84.69;99022.97;5073912;28;20048;-81
2023/10/28 11:40:05;;;;;;;7.45;3.20;;;;;;;14.99;85.87;99036.13;5058456;28;20120;-78
2023/10/28 11:42:33;;;;;;;9.63;3.03;;;;;;;15.07;87.01;99049.00;5061916;28;20469;-81
2023/10/28 11:45:04;;;;;;;10.02;3.20;;;;;;;14.87;86.40;99034.25;5079002;28;20079;-80
2023/10/28 11:47:31;;;;;;;10.15;2.88;;;;;;;14.85;87.13;99040.75;5079663;28;20084;-80
2023/10/28 11:49:58;;;;;;;6.90;2.80;;;;;;;14.73;87.73;99043.31;5072163;28;20103;-79
2023/10/28 11:52:24;;;;;;;13.90;3.30;;;;;;;14.78;88.06;99054.00;5078715;28;20578;-80
2023/10/28 11:54:51;;;;;;;9.10;3.22;;;;;;;14.85;87.91;99051.28;5083427;28;20108;-80
2023/10/28 11:57:17;;;;;;;9.20;2.97;;;;;;;15.24;87.85;99042.03;5079679;28;20072;-79
2023/10/28 11:59:44;;;;;;;9.98;3.13;;;;;;;15.37;86.83;99033.16;5075048;28;20095;-81
2023/10/28 12:02:12;;;;;;;9.20;3.10;;;;;;;15.68;86.04;99034.72;5063667;28;20072;-79
2023/10/28 12:04:39;;;;;;;7.22;2.60;;;;;;;15.58;84.72;99024.75;5068244;28;20052;-79
2023/10/28 12:07:05;;;;;;;6.15;2.80;;;;;;;15.82;82.94;99005.25;5063144;28;20383;-80
2023/10/28 12:09:35;;;;;;;8.32;2.88;;;;;;;16.26;84.02;99026.81;5061788;28;20052;-80
2023/10/28 12:12:02;;;;;;;7.70;2.75;;;;;;;16.36;83.20;99015.66;5067196;28;20055;-80
2023/10/28 12:14:29;;;;;;;7.03;2.55;;;;;;;16.35;80.94;99006.94;5070787;28;20052;-80
2023/10/28 12:16:56;;;;;;;7.78;3.53;;;;;;;16.16;81.36;99027.38;5089182;28;20048;-80
2023/10/28 12:19:24;;;;;;;5.68;2.78;;;;;;;16.08;80.89;99029.56;5083971;28;20060;-80
2023/10/28 12:21:51;;;;;;;7.25;2.28;;;;;;;16.03;81.04;99027.63;5070969;28;20080;-80
2023/10/28 12:24:17;;;;;;;6.05;2.85;;;;;;;16.04;81.77;99028.44;5078305;28;20135;-80
2023/10/28 12:26:44;;;;;;;5.63;2.50;;;;;;;16.10;81.72;99032.78;5079123;28;20087;-81
2023/10/28 12:29:11;;;;;;;5.97;2.40;;;;;;;15.99;81.38;99037.03;5069867;28;20521;-81
2023/10/28 12:31:37;;;;;;;5.93;2.42;;;;;;;15.82;81.17;99030.84;5059241;28;20052;-81
2023/10/28 12:34:04;;;;;;;5.45;2.25;;;;;;;15.57;81.44;99039.78;5075277;28;20103;-81
2023/10/28 12:36:32;;;;;;;7.03;2.47;;;;;;;15.78;80.77;99038.41;5079193;28;20136;-80
2023/10/28 12:38:59;;;;;;;9.63;2.85;;;;;;;15.99;81.26;99052.88;5081762;28;20291;-81
2023/10/28 12:41:25;;;;;;;10.68;3.28;;;;;;;15.75;80.89;99038.84;5078433;28;20048;-80
2023/10/28 12:43:52;;;;;;;8.73;2.80;;;;;;;15.76;80.95;99043.09;5072068;28;20115;-81
2023/10/28 12:46:19;;;;;;;24.65;4.40;;;;;;;15.73;80.83;99040.91;5057830;28;20076;-81
2023/10/28 12:48:45;;;;;;;8.38;3.10;;;;;;;15.68;81.10;99053.16;5058973;28;20045;-81
2023/10/28 12:51:12;;;;;;;6.40;2.97;;;;;;;15.81;80.95;99047.69;5058900;28;20049;-81
2023/10/28 12:53:41;;;;;;;5.47;2.55;;;;;;;15.64;81.01;99044.09;5062933;28;20052;-82
2023/10/28 12:56:09;;;;;;;5.72;2.45;;;;;;;15.66;80.83;99042.06;5077464;28;20052;-80
2023/10/28 12:58:36;;;;;;;7.95;2.40;;;;;;;15.79;82.25;99071.66;5078626;28;20112;-81
2023/10/28 13:01:03;;;;;;;6.00;2.30;;;;;;;15.81;82.47;99060.88;5078073;28;20621;-80
2023/10/28 13:03:30;;;;;;;5.57;2.10;;;;;;;15.72;82.63;99057.78;5078039;28;20052;-81
2023/10/28 13:05:57;;;;;;;7.15;2.13;;;;;;;15.71;81.92;99044.81;5076819;28;20055;-80
2023/10/28 13:08:24;;;;;;;6.53;1.90;;;;;;;15.78;81.10;99045.50;5082092;28;20044;-79
2023/10/28 13:10:52;;;;;;;4.38;1.88;;;;;;;15.59;80.89;99045.63;5070617;28;20518;-81
2023/10/28 13:13:22;;;;;;;4.90;1.73;;;;;;;15.46;81.18;99051.06;5077198;28;20055;-81
2023/10/28 13:15:48;;;;;;;4.82;2.17;;;;;;;15.50;80.65;99039.03;5078381;28;20131;-81
2023/10/28 13:18:15;;;;;;;5.07;1.92;;;;;;;15.64;80.61;99038.84;5077453;28;20168;-81
2023/10/28 13:20:42;;;;;;;5.38;1.65;;;;;;;15.60;80.29;99034.00;5064461;28;20045;-80
2023/10/28 13:23:10;;;;;;;2.65;1.75;;;;;;;15.42;80.61;99031.44;5057289;28;20049;-81
2023/10/28 13:25:37;;;;;;;4.60;2.05;;;;;;;15.28;81.36;99037.94;5069429;28;20128;-81
2023/10/28 13:28:05;;;;;;;5.40;1.98;;;;;;;15.14;82.20;99044.41;5078232;28;20080;-82
2023/10/28 13:30:32;;;;;;;6.85;2.53;;;;;;;15.08;82.75;99056.69;5076250;28;20108;-81
2023/10/28 13:32:58;;;;;;;6.80;2.20;;;;;;;14.90;83.40;99049.59;5075542;28;20127;-78
2023/10/28 13:35:25;;;;;;;5.07;1.90;;;;;;;15.01;83.20;99049.88;5057440;28;20108;-80
2023/10/28 13:37:52;;;;;;;6.10;2.30;;;;;;;14.96;83.63;99044.47;5056055;28;20049;-80
2023/10/28 13:40:19;;;;;;;4.38;1.73;;;;;;;15.09;83.83;99063.56;5065378;28;20176;-79
2023/10/28 13:42:46;;;;;;;4.40;1.83;;;;;;;15.20;83.24;99056.69;5069783;28;20049;-80
2023/10/28 13:45:14;;;;;;;5.30;1.92;;;;;;;15.14;83.01;99047.06;5054673;28;20466;-79
2023/10/28 13:47:42;;;;;;;5.10;1.65;;;;;;;15.00;82.69;99043.81;5067346;28;20131;-81
2023/10/28 13:50:09;;;;;;;2.42;1.60;;;;;;;15.07;83.27;99067.44;5074044;28;20072;-79
2023/10/28 13:52:35;;;;;;;5.60;2.08;;;;;;;14.97;84.21;99059.25;5083445;28;20036;-79
2023/10/28 13:55:03;;;;;;;4.20;1.55;;;;;;;15.02;84.00;99059.41;5093515;28;20042;-79
2023/10/28 13:57:29;;;;;;;2.55;1.20;;;;;;;15.12;84.49;99063.06;5093643;28;20086;-82
2023/10/28 13:59:56;;;;;;;3.90;1.60;;;;;;;15.07;84.86;99070.06;5094506;28;20033;-82
2023/10/28 14:02:24;;;;;;;2.63;1.27;;;;;;;15.07;84.93;99065.59;5084546;28;20051;-81
2023/10/28 14:04:51;;;;;;;1.45;0.98;;;;;;;15.10;84.42;99054.63;5064733;28;20045;-81
2023/10/28 14:07:17;;;;;;;2.53;1.08;;;;;;;15.12;84.98;99070.22;5057516;28;20136;-81
2023/10/28 14:09:44;;;;;;;1.65;1.10;;;;;;;15.19;85.45;99063.78;5069830;28;20101;-81
2023/10/28 14:12:11;;;;;;;2.17;1.05;;;;;;;15.21;85.22;99071.47;5076381;28;20185;-81
2023/10/28 14:14:38;;;;;;;4.78;1.15;;;;;;;15.05;85.56;99080.84;5076699;28;20072;-81
2023/10/28 14:17:05;;;;;;;3.40;1.30;;;;;;;14.99;86.13;99079.09;5069220;28;20049;-81
2023/10/28 14:19:33;;;;;;;2.70;1.10;;;;;;;14.85;86.18;99083.69;5056614;28;20045;-82
2023/10/28 14:22:00;;;;;;;2.40;1.33;;;;;;;14.78;86.30;99087.44;5073284;28;20056;-81
2023/10/28 14:24:27;;;;;;;1.83;0.95;;;;;;;14.74;87.09;99087.06;5077735;28;20380;-81
2023/10/28 14:26:53;;;;;;;2.58;1.30;;;;;;;14.53;87.80;99084.88;5077928;28;20131;-81